Lambs Creek, Pennsylvania
Current Conditions -  °F | °C
As of 1:15 AM on Monday 26 Jan 2015 (Local Time) from KN38 Reporting Station
Light Rain Light Rain  
Wind Chill: -1°   Ceiling: 2900
Heat Index: 12°   Visibility: 6mi
Dew Point:   Wind: 10mph
Humidity: 79%   Direction: 30°NNE
Pressure: 29.88"   Gusts: NA
Location:  41.8345°N, 77.0538°W
Report Text: KN38 260615Z AUTO 03009KT 6SM -RA FEW018 OVC029 M11/M14 A2988 RMK AO2
Loading
Personal Weather Stations






























Interactive Weather Map New forecast layout! Learn more

10-Day Weather Forecast

Advertisements
Track Severe Weather on mobile